createdAt,value
2019-03-24T00:00:20.214Z,9.86
2019-03-24T00:01:27.256Z,9.84
2019-03-24T00:02:20.159Z,9.94
2019-03-24T00:03:20.169Z,9.87
2019-03-24T00:04:20.127Z,9.94
2019-03-24T00:05:20.187Z,9.83
2019-03-24T00:06:20.111Z,9.84
2019-03-24T00:07:20.095Z,9.84
2019-03-24T00:08:20.115Z,9.86
2019-03-24T00:09:20.106Z,9.83
2019-03-24T00:10:20.071Z,9.76
2019-03-24T00:11:20.112Z,9.73
2019-03-24T00:12:20.041Z,9.73
2019-03-24T00:13:20.026Z,9.72
2019-03-24T00:14:20.018Z,9.66
2019-03-24T00:15:26.375Z,9.68
2019-03-24T00:16:20.996Z,9.62
2019-03-24T00:17:19.987Z,9.69
2019-03-24T00:18:19.976Z,9.74
2019-03-24T00:19:19.956Z,9.64
2019-03-24T00:20:19.979Z,9.66
2019-03-24T00:21:19.963Z,9.66
2019-03-24T00:22:19.926Z,9.65
2019-03-24T00:23:19.913Z,9.65
2019-03-24T00:24:19.914Z,9.56
2019-03-24T00:25:19.904Z,9.64
2019-03-24T00:26:19.885Z,9.62
2019-03-24T00:27:20.082Z,9.59
2019-03-24T00:28:19.868Z,9.50
2019-03-24T00:29:19.861Z,9.50
2019-03-24T00:30:19.835Z,9.56
2019-03-24T00:31:19.824Z,9.47
2019-03-24T00:32:19.855Z,9.50
2019-03-24T00:33:19.836Z,9.54
2019-03-24T00:34:19.795Z,9.50
2019-03-24T00:35:19.786Z,9.59
2019-03-24T00:36:19.776Z,9.56
2019-03-24T00:37:19.758Z,9.54
2019-03-24T00:38:19.746Z,9.59
2019-03-24T00:39:19.763Z,9.46
2019-03-24T00:40:19.723Z,9.51
2019-03-24T00:41:19.726Z,9.51
2019-03-24T00:42:19.711Z,9.59
2019-03-24T00:43:19.732Z,9.50
2019-03-24T00:44:19.679Z,9.61
2019-03-24T00:45:19.690Z,9.47
2019-03-24T00:46:19.659Z,9.46
2019-03-24T00:47:19.660Z,9.43
2019-03-24T00:48:19.632Z,9.43
2019-03-24T00:49:19.651Z,9.34
2019-03-24T00:50:19.695Z,9.47
2019-03-24T00:51:19.618Z,9.41
2019-03-24T00:52:19.650Z,9.41
2019-03-24T00:53:19.575Z,9.37
2019-03-24T00:54:19.564Z,9.41
2019-03-24T00:55:19.590Z,9.44
2019-03-24T00:56:19.543Z,9.34
2019-03-24T00:57:19.535Z,9.39
2019-03-24T00:58:19.526Z,9.32
2019-03-24T00:59:19.513Z,9.34
2019-03-24T01:00:19.497Z,9.40
2019-03-24T01:01:19.527Z,9.36
2019-03-24T01:02:19.508Z,9.39
2019-03-24T01:03:19.485Z,9.36
2019-03-24T01:04:19.467Z,9.28
2019-03-24T01:05:19.466Z,9.37
2019-03-24T01:06:19.446Z,9.40
2019-03-24T01:07:19.636Z,9.40
2019-03-24T01:08:19.418Z,9.40
2019-03-24T01:09:20.013Z,9.37
2019-03-24T01:10:19.385Z,9.32
2019-03-24T01:11:19.382Z,9.34
2019-03-24T01:12:19.360Z,9.32
2019-03-24T01:13:19.372Z,9.34
2019-03-24T01:14:19.499Z,9.34
2019-03-24T01:15:20.014Z,9.28
2019-03-24T01:16:19.319Z,9.34
2019-03-24T01:17:19.313Z,9.29
2019-03-24T01:18:19.328Z,9.25
2019-03-24T01:19:19.307Z,9.36
2019-03-24T01:20:19.327Z,9.32
2019-03-24T01:21:19.322Z,9.37
2019-03-24T01:22:19.310Z,9.34
2019-03-24T01:23:19.299Z,9.34
2019-03-24T01:24:19.264Z,9.37
2019-03-24T01:25:19.230Z,9.37
2019-03-24T01:26:19.335Z,9.25
2019-03-24T01:27:19.249Z,9.22
2019-03-24T01:28:19.185Z,9.21
2019-03-24T01:29:19.172Z,9.23
2019-03-24T01:30:19.213Z,9.25
2019-03-24T01:31:20.016Z,9.22
2019-03-24T01:32:19.162Z,9.21
2019-03-24T01:33:19.135Z,9.22
2019-03-24T01:34:19.222Z,9.21
2019-03-24T01:35:19.120Z,9.08
2019-03-24T01:36:19.164Z,9.16
2019-03-24T01:37:19.228Z,9.18
2019-03-24T01:38:19.138Z,9.10
2019-03-24T01:39:19.083Z,9.11
2019-03-24T01:40:19.056Z,9.10
2019-03-24T01:41:19.043Z,9.19
2019-03-24T01:42:19.025Z,9.16
2019-03-24T01:43:19.241Z,9.04
2019-03-24T01:44:19.014Z,9.06
2019-03-24T01:45:19.046Z,9.14
2019-03-24T01:46:19.045Z,9.08
2019-03-24T01:47:19.134Z,9.04
2019-03-24T01:48:19.022Z,9.08
2019-03-24T01:49:18.979Z,9.00
2019-03-24T01:50:19.039Z,8.95
2019-03-24T01:51:19.003Z,8.95
2019-03-24T01:52:18.980Z,8.99
2019-03-24T01:53:18.902Z,8.95
2019-03-24T01:54:18.891Z,9.02
2019-03-24T01:55:19.036Z,8.97
2019-03-24T01:56:18.868Z,8.97
2019-03-24T01:57:18.920Z,8.89
2019-03-24T01:58:18.858Z,8.88
2019-03-24T01:59:18.832Z,8.94
2019-03-24T02:00:18.976Z,8.85
2019-03-24T02:01:18.810Z,8.91
2019-03-24T02:02:18.868Z,8.88
2019-03-24T02:03:18.808Z,8.85
2019-03-24T02:04:18.845Z,8.85
2019-03-24T02:05:18.842Z,8.85
2019-03-24T02:06:18.766Z,8.89
2019-03-24T02:07:18.792Z,8.81
2019-03-24T02:08:18.764Z,8.87
2019-03-24T02:09:18.767Z,8.74
2019-03-24T02:10:18.758Z,8.76
2019-03-24T02:11:18.883Z,8.79
2019-03-24T02:12:18.690Z,8.66
2019-03-24T02:13:18.683Z,8.69
2019-03-24T02:14:18.744Z,8.70
2019-03-24T02:15:18.696Z,8.78
2019-03-24T02:16:18.707Z,8.67
2019-03-24T02:17:18.721Z,8.67
2019-03-24T02:18:18.671Z,8.76
2019-03-24T02:19:18.660Z,8.74
2019-03-24T02:20:18.661Z,8.69
2019-03-24T02:21:18.597Z,8.70
2019-03-24T02:22:18.601Z,8.64
2019-03-24T02:23:18.569Z,8.70
2019-03-24T02:24:18.557Z,8.67
2019-03-24T02:25:18.548Z,8.76
2019-03-24T02:26:18.616Z,8.82
2019-03-24T02:27:18.614Z,8.71
2019-03-24T02:28:18.627Z,8.76
2019-03-24T02:29:18.627Z,8.76
2019-03-24T02:30:18.645Z,8.70
2019-03-24T02:31:18.542Z,8.71
2019-03-24T02:32:18.531Z,8.67
2019-03-24T02:33:18.520Z,8.67
2019-03-24T02:34:18.511Z,8.64
2019-03-24T02:35:18.591Z,8.69
2019-03-24T02:36:18.523Z,8.66
2019-03-24T02:37:18.481Z,8.69
2019-03-24T02:38:18.447Z,8.69
2019-03-24T02:39:18.451Z,8.73
2019-03-24T02:40:18.633Z,8.66
2019-03-24T02:41:18.427Z,8.66
2019-03-24T02:42:18.382Z,8.66
2019-03-24T02:43:18.598Z,8.69
2019-03-24T02:44:18.394Z,8.66
2019-03-24T02:45:18.352Z,8.70
2019-03-24T02:46:24.337Z,8.64
2019-03-24T02:47:19.309Z,8.71
2019-03-24T02:48:18.297Z,8.63
2019-03-24T02:49:18.331Z,8.63
2019-03-24T02:50:18.333Z,8.66
2019-03-24T02:51:18.357Z,8.67
2019-03-24T02:52:18.279Z,8.69
2019-03-24T02:53:18.308Z,8.66
2019-03-24T02:54:18.334Z,8.70
2019-03-24T02:55:18.366Z,8.63
2019-03-24T02:56:18.272Z,8.70
2019-03-24T02:57:18.230Z,8.64
2019-03-24T02:58:18.179Z,8.60
2019-03-24T02:59:18.240Z,8.64
2019-03-24T03:00:18.219Z,8.66
2019-03-24T03:01:18.277Z,8.51
2019-03-24T03:02:18.690Z,8.61
2019-03-24T03:03:18.160Z,8.55
2019-03-24T03:04:18.174Z,8.56
2019-03-24T03:05:18.143Z,8.53
2019-03-24T03:06:18.161Z,8.52
2019-03-24T03:07:18.223Z,8.48
2019-03-24T03:08:18.175Z,8.51
2019-03-24T03:09:18.131Z,8.52
2019-03-24T03:10:18.183Z,8.51
2019-03-24T03:11:18.072Z,8.48
2019-03-24T03:12:18.056Z,8.51
2019-03-24T03:13:18.080Z,8.48
2019-03-24T03:14:18.070Z,8.48
2019-03-24T03:15:18.033Z,8.48
2019-03-24T03:16:18.027Z,8.49
2019-03-24T03:17:18.043Z,8.48
2019-03-24T03:18:18.021Z,8.48
2019-03-24T03:19:18.009Z,8.53
2019-03-24T03:20:18.058Z,8.49
2019-03-24T03:21:17.966Z,8.56
2019-03-24T03:22:17.969Z,8.58
2019-03-24T03:23:17.939Z,8.55
2019-03-24T03:24:17.940Z,8.61
2019-03-24T03:25:17.935Z,8.48
2019-03-24T03:26:17.933Z,8.53
2019-03-24T03:27:17.857Z,8.53
2019-03-24T03:28:17.850Z,8.52
2019-03-24T03:29:17.900Z,8.53
2019-03-24T03:30:17.890Z,8.48
2019-03-24T03:31:17.847Z,8.51
2019-03-24T03:32:17.854Z,8.52
2019-03-24T03:33:17.801Z,8.53
2019-03-24T03:34:17.869Z,8.55
2019-03-24T03:35:17.903Z,8.56
2019-03-24T03:36:17.786Z,8.49
2019-03-24T03:37:17.846Z,8.53
2019-03-24T03:38:17.848Z,8.52
2019-03-24T03:39:17.774Z,8.49
2019-03-24T03:40:17.709Z,8.45
2019-03-24T03:41:17.757Z,8.46
2019-03-24T03:42:17.693Z,8.41
2019-03-24T03:43:17.818Z,8.42
2019-03-24T03:44:17.733Z,8.41
2019-03-24T03:45:17.720Z,8.38
2019-03-24T03:46:17.654Z,8.41
2019-03-24T03:47:17.639Z,8.36
2019-03-24T03:48:17.729Z,8.41
2019-03-24T03:49:17.621Z,8.44
2019-03-24T03:50:17.819Z,8.38
2019-03-24T03:51:17.733Z,8.53
2019-03-24T03:52:17.628Z,8.51
2019-03-24T03:53:17.668Z,8.46
2019-03-24T03:54:17.625Z,8.48
2019-03-24T03:55:17.618Z,8.51
2019-03-24T03:56:17.610Z,8.49
2019-03-24T03:57:17.680Z,8.48
2019-03-24T03:58:17.525Z,8.46
2019-03-24T03:59:17.552Z,8.46
2019-03-24T04:00:17.556Z,8.51
2019-03-24T04:01:17.484Z,8.48
2019-03-24T04:02:17.618Z,8.42
2019-03-24T04:03:17.503Z,8.38
2019-03-24T04:04:17.503Z,8.37
2019-03-24T04:05:17.485Z,8.46
2019-03-24T04:06:17.449Z,8.45
2019-03-24T04:07:17.426Z,8.38
2019-03-24T04:08:17.440Z,8.38
2019-03-24T04:09:17.531Z,8.38
2019-03-24T04:10:17.384Z,8.42
2019-03-24T04:11:17.364Z,8.38
2019-03-24T04:12:17.410Z,8.34
2019-03-24T04:13:17.374Z,8.34
2019-03-24T04:14:17.354Z,8.31
2019-03-24T04:15:17.324Z,8.33
2019-03-24T04:16:17.318Z,8.28
2019-03-24T04:17:17.300Z,8.23
2019-03-24T04:18:17.329Z,8.31
2019-03-24T04:19:17.284Z,8.27
2019-03-24T04:20:17.272Z,8.33
2019-03-24T04:21:17.263Z,8.26
2019-03-24T04:22:17.251Z,8.24
2019-03-24T04:23:17.234Z,8.31
2019-03-24T04:24:17.250Z,8.31
2019-03-24T04:25:17.220Z,8.36
2019-03-24T04:26:17.217Z,8.33
2019-03-24T04:27:17.228Z,8.42
2019-03-24T04:28:17.178Z,8.31
2019-03-24T04:29:17.165Z,8.33
2019-03-24T04:30:17.301Z,8.27
2019-03-24T04:31:17.148Z,8.26
2019-03-24T04:32:17.164Z,8.28
2019-03-24T04:33:17.144Z,8.26
2019-03-24T04:34:17.124Z,8.26
2019-03-24T04:35:17.114Z,8.24
2019-03-24T04:36:17.091Z,8.13
2019-03-24T04:37:17.091Z,8.24
2019-03-24T04:38:17.091Z,8.10
2019-03-24T04:39:17.063Z,8.12
2019-03-24T04:40:17.044Z,8.13
2019-03-24T04:41:17.036Z,8.09
2019-03-24T04:42:17.056Z,8.12
2019-03-24T04:43:17.056Z,8.18
2019-03-24T04:44:17.002Z,8.10
2019-03-24T04:45:16.988Z,8.13
2019-03-24T04:46:16.983Z,8.12
2019-03-24T04:47:17.067Z,8.15
2019-03-24T04:48:16.993Z,8.13
2019-03-24T04:49:17.042Z,8.18
2019-03-24T04:50:16.935Z,8.19
2019-03-24T04:51:16.931Z,8.26
2019-03-24T04:52:16.912Z,8.24
2019-03-24T04:53:16.899Z,8.20
2019-03-24T04:54:16.927Z,8.24
2019-03-24T04:55:16.875Z,8.26
2019-03-24T04:56:16.863Z,8.15
2019-03-24T04:57:16.858Z,8.12
2019-03-24T04:58:16.846Z,8.10
2019-03-24T04:59:16.832Z,8.08
2019-03-24T05:00:16.855Z,8.10
2019-03-24T05:01:16.811Z,8.09
2019-03-24T05:02:16.804Z,8.10
2019-03-24T05:03:16.793Z,8.09
2019-03-24T05:04:16.779Z,8.06
2019-03-24T05:05:16.901Z,8.06
2019-03-24T05:06:16.757Z,8.03
2019-03-24T05:07:16.741Z,8.03
2019-03-24T05:08:16.729Z,8.09
2019-03-24T05:09:16.721Z,8.06
2019-03-24T05:10:16.830Z,8.00
2019-03-24T05:11:16.723Z,8.01
2019-03-24T05:12:16.700Z,7.95
2019-03-24T05:13:16.784Z,7.94
2019-03-24T05:14:16.671Z,8.03
2019-03-24T05:15:16.653Z,8.01
2019-03-24T05:16:16.669Z,7.95
2019-03-24T05:17:26.502Z,7.94
2019-03-24T05:18:17.642Z,7.94
2019-03-24T05:19:16.612Z,8.00
2019-03-24T05:20:16.621Z,8.01
2019-03-24T05:21:16.594Z,7.95
2019-03-24T05:22:16.582Z,8.01
2019-03-24T05:23:16.576Z,7.95
2019-03-24T05:24:16.598Z,7.94
2019-03-24T05:25:16.571Z,7.98
2019-03-24T05:26:16.535Z,7.93
2019-03-24T05:27:16.519Z,7.95
2019-03-24T05:28:16.538Z,8.01
2019-03-24T05:29:17.559Z,7.98
2019-03-24T05:30:16.518Z,7.98
2019-03-24T05:31:16.478Z,7.98
2019-03-24T05:32:16.592Z,8.01
2019-03-24T05:33:16.465Z,7.97
2019-03-24T05:34:16.440Z,8.01
2019-03-24T05:35:16.431Z,7.98
2019-03-24T05:36:16.449Z,7.98
2019-03-24T05:37:16.438Z,7.97
2019-03-24T05:38:16.400Z,7.93
2019-03-24T05:39:16.459Z,7.97
2019-03-24T05:40:16.448Z,7.94
2019-03-24T05:41:16.365Z,7.93
2019-03-24T05:42:16.352Z,7.80
2019-03-24T05:43:16.375Z,7.82
2019-03-24T05:44:16.335Z,7.83
2019-03-24T05:45:16.316Z,7.80
2019-03-24T05:46:16.306Z,7.80
2019-03-24T05:47:16.302Z,7.77
2019-03-24T05:48:17.065Z,7.76
2019-03-24T05:49:16.324Z,7.69
2019-03-24T05:50:16.322Z,7.77
2019-03-24T05:51:16.260Z,7.58
2019-03-24T05:52:16.310Z,7.69
2019-03-24T05:53:17.073Z,7.75
2019-03-24T05:54:16.216Z,7.60
2019-03-24T05:55:16.247Z,7.69
2019-03-24T05:56:16.277Z,7.53
2019-03-24T05:57:16.232Z,7.60
2019-03-24T05:58:16.172Z,7.58
2019-03-24T05:59:16.181Z,7.54
2019-03-24T06:00:16.244Z,7.60
2019-03-24T06:01:23.694Z,7.48
2019-03-24T06:02:16.147Z,7.61
2019-03-24T06:03:16.154Z,7.63
2019-03-24T06:04:16.105Z,7.69
2019-03-24T06:05:16.147Z,7.72
2019-03-24T06:06:16.083Z,7.70
2019-03-24T06:07:16.094Z,7.76
2019-03-24T06:08:16.109Z,7.70
2019-03-24T06:09:16.096Z,7.77
2019-03-24T06:10:16.088Z,7.80
2019-03-24T06:11:16.046Z,7.72
2019-03-24T06:12:17.111Z,7.75
2019-03-24T06:13:16.030Z,7.60
2019-03-24T06:14:15.987Z,7.67
2019-03-24T06:15:16.083Z,7.69
2019-03-24T06:16:15.988Z,7.53
2019-03-24T06:17:15.970Z,7.56
2019-03-24T06:18:16.038Z,7.51
2019-03-24T06:19:15.946Z,7.40
2019-03-24T06:20:15.987Z,7.38
2019-03-24T06:21:15.977Z,7.39
2019-03-24T06:22:15.896Z,7.33
2019-03-24T06:23:15.907Z,7.36
2019-03-24T06:24:15.989Z,7.32
2019-03-24T06:25:16.005Z,7.38
2019-03-24T06:26:15.905Z,7.38
2019-03-24T06:27:15.861Z,7.32
2019-03-24T06:28:15.855Z,7.28
2019-03-24T06:29:15.875Z,7.28
2019-03-24T06:30:15.848Z,7.23
2019-03-24T06:31:15.954Z,7.23
2019-03-24T06:32:15.787Z,7.18
2019-03-24T06:33:15.891Z,7.14
2019-03-24T06:34:15.810Z,7.06
2019-03-24T06:35:15.817Z,7.05
2019-03-24T06:36:15.752Z,7.07
2019-03-24T06:37:15.917Z,7.03
2019-03-24T06:38:15.799Z,6.99
2019-03-24T06:39:15.846Z,6.92
2019-03-24T06:40:15.760Z,6.87
2019-03-24T06:41:15.720Z,6.87
2019-03-24T06:42:15.890Z,6.78
2019-03-24T06:43:15.667Z,6.75
2019-03-24T06:44:15.753Z,6.77
2019-03-24T06:45:15.706Z,6.77
2019-03-24T06:46:15.695Z,6.63
2019-03-24T06:47:15.684Z,6.77
2019-03-24T06:48:15.678Z,6.74
2019-03-24T06:49:15.749Z,6.67
2019-03-24T06:50:15.658Z,6.67
2019-03-24T06:51:15.651Z,6.69
2019-03-24T06:52:15.625Z,6.64
2019-03-24T06:53:15.699Z,6.66
2019-03-24T06:54:15.602Z,6.67
2019-03-24T06:55:15.781Z,6.70
2019-03-24T06:56:15.586Z,6.70
2019-03-24T06:57:16.982Z,6.79
2019-03-24T06:58:15.568Z,6.69
2019-03-24T06:59:15.553Z,6.74
2019-03-24T07:00:15.532Z,6.79
2019-03-24T07:01:15.607Z,6.79
2019-03-24T07:02:15.536Z,6.82
2019-03-24T07:03:15.610Z,6.92
2019-03-24T07:04:15.537Z,6.87
2019-03-24T07:05:15.492Z,6.97
2019-03-24T07:06:15.470Z,6.99
2019-03-24T07:07:15.429Z,6.99
2019-03-24T07:08:15.453Z,7.05
2019-03-24T07:09:15.442Z,7.03
2019-03-24T07:10:15.454Z,7.05
2019-03-24T07:11:15.410Z,7.11
2019-03-24T07:12:15.433Z,7.06
2019-03-24T07:13:15.400Z,7.10
2019-03-24T07:14:15.391Z,7.06
2019-03-24T07:15:15.371Z,7.10
2019-03-24T07:16:15.467Z,7.10
2019-03-24T07:17:15.373Z,7.18
2019-03-24T07:18:15.344Z,7.25
2019-03-24T07:19:15.326Z,7.21
2019-03-24T07:20:15.318Z,7.31
2019-03-24T07:21:15.407Z,7.35
2019-03-24T07:22:16.115Z,7.36
2019-03-24T07:23:15.284Z,7.40
2019-03-24T07:24:15.269Z,7.42
2019-03-24T07:25:15.315Z,7.42
2019-03-24T07:26:15.255Z,7.45
2019-03-24T07:27:15.284Z,7.43
2019-03-24T07:28:15.351Z,7.51
2019-03-24T07:29:15.209Z,7.53
2019-03-24T07:30:15.173Z,7.58
2019-03-24T07:31:15.181Z,7.60
2019-03-24T07:32:15.277Z,7.67
2019-03-24T07:33:15.183Z,7.69
2019-03-24T07:34:16.113Z,7.73
2019-03-24T07:35:15.197Z,7.69
2019-03-24T07:36:15.142Z,7.79
2019-03-24T07:37:15.120Z,7.85
2019-03-24T07:38:15.140Z,7.82
2019-03-24T07:39:15.106Z,7.90
2019-03-24T07:40:15.069Z,7.94
2019-03-24T07:41:15.229Z,8.05
2019-03-24T07:42:15.074Z,8.01
2019-03-24T07:43:15.145Z,7.97
2019-03-24T07:44:15.055Z,7.95
2019-03-24T07:45:15.048Z,7.98
2019-03-24T07:46:15.026Z,7.95
2019-03-24T07:47:15.141Z,8.06
2019-03-24T07:48:19.441Z,7.95
2019-03-24T07:49:14.952Z,8.08
2019-03-24T07:50:14.991Z,8.05
2019-03-24T07:51:14.981Z,8.09
2019-03-24T07:52:14.966Z,8.03
2019-03-24T07:53:15.134Z,8.03
2019-03-24T07:54:14.943Z,8.10
2019-03-24T07:55:14.914Z,8.10
2019-03-24T07:56:14.925Z,8.20
2019-03-24T07:57:15.617Z,8.26
2019-03-24T07:58:14.895Z,8.30
2019-03-24T07:59:14.964Z,8.41
2019-03-24T08:00:14.809Z,8.37
2019-03-24T08:01:14.861Z,8.44
2019-03-24T08:02:14.817Z,8.52
2019-03-24T08:03:14.830Z,8.58
2019-03-24T08:04:14.845Z,8.63
2019-03-24T08:05:14.959Z,8.73
2019-03-24T08:06:14.801Z,8.79
2019-03-24T08:07:14.808Z,8.81
2019-03-24T08:08:14.877Z,8.87
2019-03-24T08:09:14.767Z,8.94
2019-03-24T08:10:14.759Z,8.91
2019-03-24T08:11:14.752Z,8.97
2019-03-24T08:12:14.739Z,8.88
2019-03-24T08:13:14.825Z,8.97
2019-03-24T08:14:14.707Z,8.91
2019-03-24T08:15:14.701Z,9.02
2019-03-24T08:16:14.688Z,8.95
2019-03-24T08:17:14.679Z,9.06
2019-03-24T08:18:14.784Z,9.03
2019-03-24T08:19:14.673Z,9.16
2019-03-24T08:20:14.635Z,9.22
2019-03-24T08:21:14.742Z,9.16
2019-03-24T08:22:14.658Z,9.08
2019-03-24T08:23:14.612Z,9.13
2019-03-24T08:24:14.697Z,9.21
2019-03-24T08:25:14.611Z,9.21
2019-03-24T08:26:14.579Z,9.19
2019-03-24T08:27:14.574Z,9.28
2019-03-24T08:28:14.591Z,9.23
2019-03-24T08:29:14.549Z,9.36
2019-03-24T08:30:14.529Z,9.36
2019-03-24T08:31:14.506Z,9.46
2019-03-24T08:32:14.509Z,9.47
2019-03-24T08:33:14.500Z,9.50
2019-03-24T08:34:14.493Z,9.51
2019-03-24T08:35:14.579Z,9.47
2019-03-24T08:36:15.668Z,9.44
2019-03-24T08:37:14.476Z,9.54
2019-03-24T08:38:14.439Z,9.55
2019-03-24T08:39:14.424Z,9.58
2019-03-24T08:40:14.663Z,9.55
2019-03-24T08:41:14.432Z,9.54
2019-03-24T08:42:14.386Z,9.62
2019-03-24T08:43:14.379Z,9.64
2019-03-24T08:44:14.381Z,9.73
2019-03-24T08:45:14.367Z,9.62
2019-03-24T08:46:14.455Z,9.74
2019-03-24T08:47:14.342Z,9.66
2019-03-24T08:48:14.372Z,9.72
2019-03-24T08:49:14.401Z,9.64
2019-03-24T08:50:14.408Z,9.69
2019-03-24T08:51:14.331Z,9.59
2019-03-24T08:52:14.301Z,9.51
2019-03-24T08:53:14.280Z,9.56
2019-03-24T08:54:14.261Z,9.51
2019-03-24T08:55:14.286Z,9.54
2019-03-24T08:56:14.346Z,9.50
2019-03-24T08:57:14.232Z,9.48
2019-03-24T08:58:14.206Z,9.54
2019-03-24T08:59:14.207Z,9.54
2019-03-24T09:00:14.197Z,9.61
2019-03-24T09:01:14.192Z,9.54
2019-03-24T09:02:14.240Z,9.51
2019-03-24T09:03:14.176Z,9.50
2019-03-24T09:04:14.309Z,9.41
2019-03-24T09:05:14.112Z,9.39
2019-03-24T09:06:14.137Z,9.41
2019-03-24T09:07:14.266Z,9.39
2019-03-24T09:08:14.116Z,9.43
2019-03-24T09:09:14.097Z,9.46
2019-03-24T09:10:14.093Z,9.54
2019-03-24T09:11:14.075Z,9.47
2019-03-24T09:12:14.075Z,9.59
2019-03-24T09:13:14.160Z,9.68
2019-03-24T09:14:14.056Z,9.76
2019-03-24T09:15:14.007Z,9.87
2019-03-24T09:16:14.116Z,9.87
2019-03-24T09:17:14.629Z,9.94
2019-03-24T09:18:14.017Z,9.92
2019-03-24T09:19:13.969Z,10.02
2019-03-24T09:20:14.090Z,9.98
2019-03-24T09:21:13.972Z,9.98
2019-03-24T09:22:13.964Z,9.99
2019-03-24T09:23:14.045Z,10.07
2019-03-24T09:24:13.941Z,9.97
2019-03-24T09:25:13.918Z,9.98
2019-03-24T09:26:13.907Z,9.97
2019-03-24T09:27:13.893Z,9.99
2019-03-24T09:28:13.855Z,10.09
2019-03-24T09:29:13.962Z,10.15
2019-03-24T09:30:13.859Z,10.26
2019-03-24T09:31:13.815Z,10.33
2019-03-24T09:32:13.860Z,10.25
2019-03-24T09:33:13.846Z,10.42
2019-03-24T09:34:13.783Z,10.34
2019-03-24T09:35:13.893Z,10.46
2019-03-24T09:36:13.791Z,10.40
2019-03-24T09:37:13.770Z,10.53
2019-03-24T09:38:13.848Z,10.49
2019-03-24T09:39:13.725Z,10.59
2019-03-24T09:40:13.734Z,10.57
2019-03-24T09:41:13.853Z,10.51
2019-03-24T09:42:13.692Z,10.64
2019-03-24T09:43:13.719Z,10.61
2019-03-24T09:44:14.008Z,10.68
2019-03-24T09:45:13.667Z,10.68
2019-03-24T09:46:13.689Z,10.69
2019-03-24T09:47:13.703Z,10.64
2019-03-24T09:48:13.644Z,10.61
2019-03-24T09:49:13.756Z,10.67
2019-03-24T09:50:13.591Z,10.56
2019-03-24T09:51:13.622Z,10.56
2019-03-24T09:52:13.623Z,10.57
2019-03-24T09:53:13.579Z,10.60
2019-03-24T09:54:13.587Z,10.67
2019-03-24T09:55:13.667Z,10.74
2019-03-24T09:56:13.535Z,10.71
2019-03-24T09:57:13.664Z,10.71
2019-03-24T09:58:13.552Z,10.74
2019-03-24T09:59:13.535Z,10.76
2019-03-24T10:00:13.539Z,10.74
2019-03-24T10:01:13.518Z,10.74
2019-03-24T10:02:13.578Z,10.89
2019-03-24T10:03:13.528Z,10.89
2019-03-24T10:04:13.491Z,10.84
2019-03-24T10:05:13.481Z,10.93
2019-03-24T10:06:13.593Z,10.90
2019-03-24T10:07:13.440Z,10.99
2019-03-24T10:08:13.442Z,10.99
2019-03-24T10:09:13.422Z,10.97
2019-03-24T10:10:13.417Z,11.05
2019-03-24T10:11:13.503Z,11.11
2019-03-24T10:12:13.375Z,11.17
2019-03-24T10:13:13.407Z,11.19
2019-03-24T10:14:13.364Z,11.18
2019-03-24T10:15:13.493Z,11.17
2019-03-24T10:16:13.362Z,11.25
2019-03-24T10:17:13.427Z,11.27
2019-03-24T10:18:13.338Z,11.32
2019-03-24T10:19:14.455Z,11.41
2019-03-24T10:20:13.394Z,11.47
2019-03-24T10:21:13.294Z,11.50
2019-03-24T10:22:13.278Z,11.59
2019-03-24T10:23:13.261Z,11.51
2019-03-24T10:24:13.257Z,11.55
2019-03-24T10:25:13.300Z,11.73
2019-03-24T10:26:13.250Z,11.72
2019-03-24T10:27:13.228Z,11.77
2019-03-24T10:28:13.302Z,11.73
2019-03-24T10:29:13.199Z,11.70
2019-03-24T10:30:13.216Z,11.59
2019-03-24T10:31:13.173Z,11.54
2019-03-24T10:32:13.167Z,11.32
2019-03-24T10:33:13.197Z,11.27
2019-03-24T10:34:13.315Z,11.23
2019-03-24T10:35:13.129Z,11.23
2019-03-24T10:36:13.121Z,11.19
2019-03-24T10:37:13.122Z,11.29
2019-03-24T10:38:13.105Z,11.25
2019-03-24T10:39:13.059Z,11.33
2019-03-24T10:40:13.193Z,11.40
2019-03-24T10:41:13.081Z,11.50
2019-03-24T10:42:13.047Z,11.50
2019-03-24T10:43:13.041Z,11.54
2019-03-24T10:44:13.026Z,11.51
2019-03-24T10:45:12.993Z,11.50
2019-03-24T10:46:13.081Z,11.48
2019-03-24T10:47:13.073Z,11.43
2019-03-24T10:48:13.038Z,11.47
2019-03-24T10:49:13.050Z,11.35
2019-03-24T10:50:14.428Z,11.27
2019-03-24T10:51:13.021Z,11.33
2019-03-24T10:52:12.927Z,11.35
2019-03-24T10:53:12.986Z,11.44
2019-03-24T10:54:13.023Z,11.55
2019-03-24T10:55:12.891Z,11.60
2019-03-24T10:56:12.900Z,11.57
2019-03-24T10:57:12.868Z,11.66
2019-03-24T10:58:12.891Z,11.70
2019-03-24T10:59:13.078Z,11.75
2019-03-24T11:00:12.901Z,11.86
2019-03-24T11:01:12.842Z,11.91
2019-03-24T11:02:12.821Z,11.95
2019-03-24T11:03:12.819Z,11.95
2019-03-24T11:04:12.806Z,11.88
2019-03-24T11:05:12.864Z,11.90
2019-03-24T11:06:12.761Z,11.88
2019-03-24T11:07:12.767Z,11.83
2019-03-24T11:08:12.751Z,11.91
2019-03-24T11:09:12.794Z,11.87
2019-03-24T11:10:12.907Z,11.81
2019-03-24T11:11:12.733Z,11.88
2019-03-24T11:12:12.717Z,11.88
2019-03-24T11:13:12.741Z,11.87
2019-03-24T11:14:12.673Z,11.87
2019-03-24T11:15:12.683Z,11.90
2019-03-24T11:16:12.742Z,11.75
2019-03-24T11:17:12.663Z,11.86
2019-03-24T11:18:12.617Z,11.75
2019-03-24T11:19:12.613Z,11.81
2019-03-24T11:20:12.571Z,11.78
2019-03-24T11:21:12.601Z,11.87
2019-03-24T11:22:12.599Z,11.94
2019-03-24T11:23:12.555Z,12.09
2019-03-24T11:24:12.536Z,12.15
2019-03-24T11:25:12.523Z,12.13
2019-03-24T11:26:12.511Z,12.18
2019-03-24T11:27:12.513Z,12.07
2019-03-24T11:28:12.652Z,12.06
2019-03-24T11:29:13.156Z,12.03
2019-03-24T11:30:12.456Z,12.02
2019-03-24T11:31:13.212Z,12.06
2019-03-24T11:32:12.503Z,12.20
2019-03-24T11:33:12.428Z,12.18
2019-03-24T11:34:12.421Z,12.24
2019-03-24T11:35:12.468Z,12.24
2019-03-24T11:36:12.417Z,12.29
2019-03-24T11:37:12.437Z,12.31
2019-03-24T11:38:12.385Z,12.35
2019-03-24T11:39:12.364Z,12.36
2019-03-24T11:40:12.569Z,12.39
2019-03-24T11:41:12.388Z,12.46
2019-03-24T11:42:12.346Z,12.46
2019-03-24T11:43:12.326Z,12.40
2019-03-24T11:44:12.316Z,12.37
2019-03-24T11:45:12.345Z,12.40
2019-03-24T11:46:12.287Z,12.40
2019-03-24T11:47:12.401Z,12.43
2019-03-24T11:48:12.306Z,12.39
2019-03-24T11:49:12.292Z,12.40
2019-03-24T11:50:12.335Z,12.32
2019-03-24T11:51:12.266Z,12.32
2019-03-24T11:52:12.283Z,12.40
2019-03-24T11:53:13.163Z,12.43
2019-03-24T11:54:12.244Z,12.43
2019-03-24T11:55:12.230Z,12.43
2019-03-24T11:56:12.256Z,12.54
2019-03-24T11:57:12.244Z,12.53
2019-03-24T11:58:12.281Z,12.65
2019-03-24T11:59:12.191Z,12.76
2019-03-24T12:00:12.186Z,12.78
2019-03-24T12:01:12.165Z,12.82
2019-03-24T12:02:22.252Z,12.76
2019-03-24T12:03:12.115Z,12.73
2019-03-24T12:04:12.131Z,12.64
2019-03-24T12:05:12.200Z,12.65
2019-03-24T12:06:14.780Z,12.73
2019-03-24T12:07:12.684Z,12.80
2019-03-24T12:08:12.076Z,12.93
2019-03-24T12:09:12.067Z,13.01
2019-03-24T12:10:12.029Z,13.01
2019-03-24T12:11:12.039Z,12.97
2019-03-24T12:12:12.215Z,13.15
2019-03-24T12:13:12.016Z,13.12
2019-03-24T12:14:12.005Z,13.11
2019-03-24T12:15:12.067Z,13.09
2019-03-24T12:16:11.978Z,13.09
2019-03-24T12:17:11.948Z,13.09
2019-03-24T12:18:12.055Z,13.03
2019-03-24T12:19:11.952Z,13.08
2019-03-24T12:20:11.915Z,13.09
2019-03-24T12:21:11.951Z,13.00
2019-03-24T12:22:11.898Z,12.85
2019-03-24T12:23:11.961Z,12.75
2019-03-24T12:24:11.855Z,12.72
2019-03-24T12:25:11.842Z,12.72
2019-03-24T12:26:11.911Z,12.67
2019-03-24T12:27:11.830Z,12.57
2019-03-24T12:28:11.822Z,12.55
2019-03-24T12:29:11.938Z,12.54
2019-03-24T12:30:11.867Z,12.62
2019-03-24T12:31:11.788Z,12.64
2019-03-24T12:32:11.785Z,12.65
2019-03-24T12:33:11.771Z,12.76
2019-03-24T12:34:11.743Z,12.97
2019-03-24T12:35:11.742Z,13.04
2019-03-24T12:36:11.823Z,13.28
2019-03-24T12:37:11.737Z,13.60
2019-03-24T12:38:11.709Z,13.70
2019-03-24T12:39:11.684Z,13.92
2019-03-24T12:40:11.761Z,13.97
2019-03-24T12:41:11.721Z,14.05
2019-03-24T12:42:11.656Z,14.11
2019-03-24T12:43:19.364Z,14.10
2019-03-24T12:44:12.644Z,13.97
2019-03-24T12:45:11.739Z,14.14
2019-03-24T12:46:11.613Z,14.15
2019-03-24T12:47:11.616Z,14.30
2019-03-24T12:48:11.607Z,14.51
2019-03-24T12:49:11.590Z,14.62
2019-03-24T12:50:11.559Z,14.63
2019-03-24T12:51:11.556Z,14.47
2019-03-24T12:52:13.088Z,14.37
2019-03-24T12:53:11.555Z,14.28
2019-03-24T12:54:11.586Z,14.23
2019-03-24T12:55:11.646Z,14.32
2019-03-24T12:56:11.537Z,14.20
2019-03-24T12:57:11.506Z,14.22
2019-03-24T12:58:11.584Z,14.35
2019-03-24T12:59:11.494Z,14.44
2019-03-24T13:00:11.468Z,14.40
2019-03-24T13:01:11.576Z,14.23
2019-03-24T13:02:11.463Z,14.17
2019-03-24T13:03:11.472Z,14.17
2019-03-24T13:04:11.540Z,14.10
2019-03-24T13:05:11.466Z,14.04
2019-03-24T13:06:11.566Z,13.83
2019-03-24T13:07:11.430Z,13.75
2019-03-24T13:08:11.496Z,13.57
2019-03-24T13:09:11.431Z,13.39
2019-03-24T13:10:11.430Z,13.33